sensor_id;sensor_type;location;lat;lon;timestamp;temperature;humidity
36002;DHT22;22070;50.922;5.430;2022-12-18T00:01:57;-4.60;99.90
36002;DHT22;22070;50.922;5.430;2022-12-18T00:04:25;-4.60;99.90
36002;DHT22;22070;50.922;5.430;2022-12-18T00:06:51;-4.00;99.90
36002;DHT22;22070;50.922;5.430;2022-12-18T00:09:18;-4.60;99.90
36002;DHT22;22070;50.922;5.430;2022-12-18T00:11:43;-4.60;99.90
36002;DHT22;22070;50.922;5.430;2022-12-18T00:14:11;-2.70;99.90
36002;DHT22;22070;50.922;5.430;2022-12-18T00:16:37;-5.70;99.90
36002;DHT22;22070;50.922;5.430;2022-12-18T00:19:05;-4.80;99.90
36002;DHT22;22070;50.922;5.430;2022-12-18T00:21:32;-4.80;99.90
36002;DHT22;22070;50.922;5.430;2022-12-18T00:23:59;-3.60;99.90
36002;DHT22;22070;50.922;5.430;2022-12-18T00:26:30;-4.70;99.90
36002;DHT22;22070;50.922;5.430;2022-12-18T00:28:59;-4.70;99.90
36002;DHT22;22070;50.922;5.430;2022-12-18T00:31:25;-4.70;99.90
36002;DHT22;22070;50.922;5.430;2022-12-18T00:33:54;-4.00;99.90
36002;DHT22;22070;50.922;5.430;2022-12-18T00:36:22;-3.80;99.90
36002;DHT22;22070;50.922;5.430;2022-12-18T00:38:48;-5.00;99.90
36002;DHT22;22070;50.922;5.430;2022-12-18T00:41:15;-3.90;99.90
36002;DHT22;22070;50.922;5.430;2022-12-18T00:44:02;-4.90;99.90
36002;DHT22;22070;50.922;5.430;2022-12-18T00:46:28;-4.80;99.90
36002;DHT22;22070;50.922;5.430;2022-12-18T00:48:54;-4.80;99.90
36002;DHT22;22070;50.922;5.430;2022-12-18T00:51:19;-4.20;99.90
36002;DHT22;22070;50.922;5.430;2022-12-18T00:53:45;-5.10;99.90
36002;DHT22;22070;50.922;5.430;2022-12-18T00:56:10;-5.10;99.90
36002;DHT22;22070;50.922;5.430;2022-12-18T00:58:36;-3.20;99.90
36002;DHT22;22070;50.922;5.430;2022-12-18T01:01:04;-3.70;99.90
36002;DHT22;22070;50.922;5.430;2022-12-18T01:03:29;-5.30;99.90
36002;DHT22;22070;50.922;5.430;2022-12-18T01:05:56;-5.30;99.90
36002;DHT22;22070;50.922;5.430;2022-12-18T01:08:22;-4.10;99.90
36002;DHT22;22070;50.922;5.430;2022-12-18T01:10:47;-5.30;99.90
36002;DHT22;22070;50.922;5.430;2022-12-18T01:13:13;-5.30;99.90
36002;DHT22;22070;50.922;5.430;2022-12-18T01:15:38;-3.80;99.90
36002;DHT22;22070;50.922;5.430;2022-12-18T01:18:06;-5.20;99.90
36002;DHT22;22070;50.922;5.430;2022-12-18T01:20:32;-3.80;99.90
36002;DHT22;22070;50.922;5.430;2022-12-18T01:22:57;-5.40;99.90
36002;DHT22;22070;50.922;5.430;2022-12-18T01:25:23;-5.30;99.90
36002;DHT22;22070;50.922;5.430;2022-12-18T01:27:49;-5.20;99.90
36002;DHT22;22070;50.922;5.430;2022-12-18T01:30:14;-5.10;99.90
36002;DHT22;22070;50.922;5.430;2022-12-18T01:32:40;-5.10;99.90
36002;DHT22;22070;50.922;5.430;2022-12-18T01:35:06;-4.50;99.90
36002;DHT22;22070;50.922;5.430;2022-12-18T01:37:32;-5.00;99.90
36002;DHT22;22070;50.922;5.430;2022-12-18T01:39:58;-5.00;99.90
36002;DHT22;22070;50.922;5.430;2022-12-18T01:42:24;-5.00;99.90
36002;DHT22;22070;50.922;5.430;2022-12-18T01:44:58;-3.90;99.90
36002;DHT22;22070;50.922;5.430;2022-12-18T01:47:56;-5.10;99.90
36002;DHT22;22070;50.922;5.430;2022-12-18T01:50:37;-5.00;99.90
36002;DHT22;22070;50.922;5.430;2022-12-18T01:53:11;-5.10;99.90
36002;DHT22;22070;50.922;5.430;2022-12-18T01:55:42;-4.70;99.90
36002;DHT22;22070;50.922;5.430;2022-12-18T01:58:08;-5.20;99.90
36002;DHT22;22070;50.922;5.430;2022-12-18T02:00:34;-5.20;99.90
36002;DHT22;22070;50.922;5.430;2022-12-18T02:03:00;-5.20;99.90
36002;DHT22;22070;50.922;5.430;2022-12-18T02:08:33;-5.30;99.90
36002;DHT22;22070;50.922;5.430;2022-12-18T02:27:38;-5.40;99.90
36002;DHT22;22070;50.922;5.430;2022-12-18T02:30:05;-5.30;99.90
36002;DHT22;22070;50.922;5.430;2022-12-18T02:32:35;-5.40;99.90
36002;DHT22;22070;50.922;5.430;2022-12-18T02:35:05;-5.10;99.90
36002;DHT22;22070;50.922;5.430;2022-12-18T02:37:32;-5.30;99.90
36002;DHT22;22070;50.922;5.430;2022-12-18T02:39:59;-3.90;99.90
36002;DHT22;22070;50.922;5.430;2022-12-18T02:42:28;-5.40;99.90
36002;DHT22;22070;50.922;5.430;2022-12-18T02:44:54;-5.20;99.90
36002;DHT22;22070;50.922;5.430;2022-12-18T02:47:26;-5.50;99.90
36002;DHT22;22070;50.922;5.430;2022-12-18T02:50:08;-4.50;99.90
36002;DHT22;22070;50.922;5.430;2022-12-18T02:53:52;-5.50;99.90
36002;DHT22;22070;50.922;5.430;2022-12-18T02:58:30;-5.40;99.90
36002;DHT22;22070;50.922;5.430;2022-12-18T03:03:38;-5.60;99.90
36002;DHT22;22070;50.922;5.430;2022-12-18T03:06:12;-5.70;99.90
36002;DHT22;22070;50.922;5.430;2022-12-18T03:08:44;-5.10;99.90
36002;DHT22;22070;50.922;5.430;2022-12-18T03:11:12;-5.90;99.90
36002;DHT22;22070;50.922;5.430;2022-12-18T03:13:51;-5.90;99.90
36002;DHT22;22070;50.922;5.430;2022-12-18T03:16:24;-5.80;99.90
36002;DHT22;22070;50.922;5.430;2022-12-18T03:19:14;-5.80;99.90
36002;DHT22;22070;50.922;5.430;2022-12-18T03:21:47;-5.40;99.90
36002;DHT22;22070;50.922;5.430;2022-12-18T03:24:14;-4.80;99.90
36002;DHT22;22070;50.922;5.430;2022-12-18T03:26:43;-5.90;99.90
36002;DHT22;22070;50.922;5.430;2022-12-18T03:29:14;-4.90;99.90
36002;DHT22;22070;50.922;5.430;2022-12-18T03:31:47;-5.30;99.90
36002;DHT22;22070;50.922;5.430;2022-12-18T03:34:19;-5.90;99.90
36002;DHT22;22070;50.922;5.430;2022-12-18T03:36:46;-5.90;99.90
36002;DHT22;22070;50.922;5.430;2022-12-18T03:39:12;-5.80;99.90
36002;DHT22;22070;50.922;5.430;2022-12-18T03:41:44;-6.00;99.90
36002;DHT22;22070;50.922;5.430;2022-12-18T03:49:36;-5.80;99.90
36002;DHT22;22070;50.922;5.430;2022-12-18T03:54:39;-5.80;99.90
36002;DHT22;22070;50.922;5.430;2022-12-18T03:57:18;-4.30;99.90
36002;DHT22;22070;50.922;5.430;2022-12-18T03:59:46;-5.80;99.90
36002;DHT22;22070;50.922;5.430;2022-12-18T04:02:12;-5.80;99.90
36002;DHT22;22070;50.922;5.430;2022-12-18T04:04:40;-4.80;99.90
36002;DHT22;22070;50.922;5.430;2022-12-18T04:07:07;-4.80;99.90
36002;DHT22;22070;50.922;5.430;2022-12-18T04:09:34;-5.90;99.90
36002;DHT22;22070;50.922;5.430;2022-12-18T04:12:00;-6.00;99.90
36002;DHT22;22070;50.922;5.430;2022-12-18T04:14:28;-6.00;99.90
36002;DHT22;22070;50.922;5.430;2022-12-18T04:16:54;-6.10;99.90
36002;DHT22;22070;50.922;5.430;2022-12-18T04:19:19;-6.10;99.90
36002;DHT22;22070;50.922;5.430;2022-12-18T04:21:45;-6.10;99.90
36002;DHT22;22070;50.922;5.430;2022-12-18T04:24:10;-5.20;99.90
36002;DHT22;22070;50.922;5.430;2022-12-18T04:26:36;-6.00;99.90
36002;DHT22;22070;50.922;5.430;2022-12-18T04:29:02;-6.00;99.90
36002;DHT22;22070;50.922;5.430;2022-12-18T04:31:28;-6.10;99.90
36002;DHT22;22070;50.922;5.430;2022-12-18T04:33:53;-4.10;99.90
36002;DHT22;22070;50.922;5.430;2022-12-18T04:36:19;-5.90;99.90
36002;DHT22;22070;50.922;5.430;2022-12-18T04:38:45;-4.40;99.90
36002;DHT22;22070;50.922;5.430;2022-12-18T04:41:13;-6.40;99.90
36002;DHT22;22070;50.922;5.430;2022-12-18T04:43:39;-6.40;99.90
36002;DHT22;22070;50.922;5.430;2022-12-18T04:46:06;-6.30;99.90
36002;DHT22;22070;50.922;5.430;2022-12-18T04:48:32;-6.20;99.90
36002;DHT22;22070;50.922;5.430;2022-12-18T04:50:58;-5.50;99.90
36002;DHT22;22070;50.922;5.430;2022-12-18T04:53:24;-5.50;99.90
36002;DHT22;22070;50.922;5.430;2022-12-18T04:55:50;-4.70;99.90
36002;DHT22;22070;50.922;5.430;2022-12-18T04:58:15;-6.10;99.90
36002;DHT22;22070;50.922;5.430;2022-12-18T05:00:41;-6.30;99.90
36002;DHT22;22070;50.922;5.430;2022-12-18T05:03:07;-6.40;99.90
36002;DHT22;22070;50.922;5.430;2022-12-18T05:05:35;-6.20;99.90
36002;DHT22;22070;50.922;5.430;2022-12-18T05:08:00;-6.30;99.90
36002;DHT22;22070;50.922;5.430;2022-12-18T05:10:26;-4.70;99.90
36002;DHT22;22070;50.922;5.430;2022-12-18T05:12:52;-6.30;99.90
36002;DHT22;22070;50.922;5.430;2022-12-18T05:15:24;-4.60;99.90
36002;DHT22;22070;50.922;5.430;2022-12-18T05:17:50;-6.40;99.90
36002;DHT22;22070;50.922;5.430;2022-12-18T05:20:15;-5.80;99.90
36002;DHT22;22070;50.922;5.430;2022-12-18T05:22:41;-6.40;99.90
36002;DHT22;22070;50.922;5.430;2022-12-18T05:25:07;-6.40;99.90
36002;DHT22;22070;50.922;5.430;2022-12-18T05:27:33;-6.30;99.90
36002;DHT22;22070;50.922;5.430;2022-12-18T05:29:58;-4.70;99.90
36002;DHT22;22070;50.922;5.430;2022-12-18T05:32:24;-6.20;99.90
36002;DHT22;22070;50.922;5.430;2022-12-18T05:34:50;-4.30;99.90
36002;DHT22;22070;50.922;5.430;2022-12-18T05:37:15;-6.10;99.90
36002;DHT22;22070;50.922;5.430;2022-12-18T05:39:42;-6.10;99.90
36002;DHT22;22070;50.922;5.430;2022-12-18T05:42:08;-6.30;99.90
36002;DHT22;22070;50.922;5.430;2022-12-18T05:44:34;-4.40;99.90
36002;DHT22;22070;50.922;5.430;2022-12-18T05:46:59;-6.30;99.90
36002;DHT22;22070;50.922;5.430;2022-12-18T05:49:25;-6.20;99.90
36002;DHT22;22070;50.922;5.430;2022-12-18T05:51:51;-6.10;99.90
36002;DHT22;22070;50.922;5.430;2022-12-18T05:54:16;-5.50;99.90
36002;DHT22;22070;50.922;5.430;2022-12-18T05:56:42;-5.70;99.90
36002;DHT22;22070;50.922;5.430;2022-12-18T05:59:07;-6.10;99.90
36002;DHT22;22070;50.922;5.430;2022-12-18T06:01:33;-6.10;99.90
36002;DHT22;22070;50.922;5.430;2022-12-18T06:03:59;-6.10;99.90
36002;DHT22;22070;50.922;5.430;2022-12-18T06:06:26;-5.50;99.90
36002;DHT22;22070;50.922;5.430;2022-12-18T06:08:53;-6.30;99.90
36002;DHT22;22070;50.922;5.430;2022-12-18T06:11:24;-5.80;99.90
36002;DHT22;22070;50.922;5.430;2022-12-18T06:13:52;-6.40;99.90
36002;DHT22;22070;50.922;5.430;2022-12-18T06:16:17;-6.60;99.90
36002;DHT22;22070;50.922;5.430;2022-12-18T06:18:43;-5.80;99.90
36002;DHT22;22070;50.922;5.430;2022-12-18T06:21:09;-6.60;99.90
36002;DHT22;22070;50.922;5.430;2022-12-18T06:23:35;-6.60;99.90
36002;DHT22;22070;50.922;5.430;2022-12-18T06:26:09;-6.60;99.90
36002;DHT22;22070;50.922;5.430;2022-12-18T06:28:35;-6.60;99.90
36002;DHT22;22070;50.922;5.430;2022-12-18T06:31:03;-6.70;99.90
36002;DHT22;22070;50.922;5.430;2022-12-18T06:33:29;-6.60;99.90
36002;DHT22;22070;50.922;5.430;2022-12-18T06:38:28;-6.40;99.90
36002;DHT22;22070;50.922;5.430;2022-12-18T06:40:53;-6.30;99.90
36002;DHT22;22070;50.922;5.430;2022-12-18T06:43:19;-6.70;99.90
36002;DHT22;22070;50.922;5.430;2022-12-18T06:45:45;-6.60;99.90
36002;DHT22;22070;50.922;5.430;2022-12-18T06:48:14;-6.60;99.90
36002;DHT22;22070;50.922;5.430;2022-12-18T06:50:42;-4.90;99.90
36002;DHT22;22070;50.922;5.430;2022-12-18T06:53:08;-4.80;99.90
36002;DHT22;22070;50.922;5.430;2022-12-18T06:55:33;-6.50;99.90
36002;DHT22;22070;50.922;5.430;2022-12-18T06:57:59;-5.10;99.90
36002;DHT22;22070;50.922;5.430;2022-12-18T07:00:25;-6.50;99.90
36002;DHT22;22070;50.922;5.430;2022-12-18T07:02:50;-6.40;99.90
36002;DHT22;22070;50.922;5.430;2022-12-18T07:05:16;-6.40;99.90
36002;DHT22;22070;50.922;5.430;2022-12-18T07:07:42;-6.30;99.90
36002;DHT22;22070;50.922;5.430;2022-12-18T07:10:07;-6.20;99.90
36002;DHT22;22070;50.922;5.430;2022-12-18T07:12:33;-6.20;99.90
36002;DHT22;22070;50.922;5.430;2022-12-18T07:14:59;-4.60;99.90
36002;DHT22;22070;50.922;5.430;2022-12-18T07:17:24;-6.20;99.90
36002;DHT22;22070;50.922;5.430;2022-12-18T07:19:50;-6.30;99.90
36002;DHT22;22070;50.922;5.430;2022-12-18T07:22:16;-6.30;99.90
36002;DHT22;22070;50.922;5.430;2022-12-18T07:24:41;-4.80;99.90
36002;DHT22;22070;50.922;5.430;2022-12-18T07:27:07;-4.70;99.90
36002;DHT22;22070;50.922;5.430;2022-12-18T07:29:32;-6.30;99.90
36002;DHT22;22070;50.922;5.430;2022-12-18T07:31:58;-6.30;99.90
36002;DHT22;22070;50.922;5.430;2022-12-18T07:34:24;-5.70;99.90
36002;DHT22;22070;50.922;5.430;2022-12-18T07:36:50;-6.40;99.90
36002;DHT22;22070;50.922;5.430;2022-12-18T07:39:15;-4.80;99.90
36002;DHT22;22070;50.922;5.430;2022-12-18T07:41:41;-4.30;99.90
36002;DHT22;22070;50.922;5.430;2022-12-18T07:44:29;-5.80;99.90
36002;DHT22;22070;50.922;5.430;2022-12-18T07:46:55;-6.00;99.90
36002;DHT22;22070;50.922;5.430;2022-12-18T07:49:21;-6.30;99.90
36002;DHT22;22070;50.922;5.430;2022-12-18T07:51:46;-6.30;99.90
36002;DHT22;22070;50.922;5.430;2022-12-18T07:54:14;-5.40;99.90
36002;DHT22;22070;50.922;5.430;2022-12-18T07:56:40;-6.10;99.90
36002;DHT22;22070;50.922;5.430;2022-12-18T07:59:06;-6.10;99.90
36002;DHT22;22070;50.922;5.430;2022-12-18T08:01:33;-6.00;99.90
36002;DHT22;22070;50.922;5.430;2022-12-18T08:03:59;-6.20;99.90
36002;DHT22;22070;50.922;5.430;2022-12-18T08:06:24;-4.40;99.90
36002;DHT22;22070;50.922;5.430;2022-12-18T08:08:55;-5.40;99.90
36002;DHT22;22070;50.922;5.430;2022-12-18T08:11:22;-4.40;99.90
36002;DHT22;22070;50.922;5.430;2022-12-18T08:13:48;-5.60;99.90
36002;DHT22;22070;50.922;5.430;2022-12-18T08:16:13;-5.90;99.90
36002;DHT22;22070;50.922;5.430;2022-12-18T08:18:39;-5.00;99.90
36002;DHT22;22070;50.922;5.430;2022-12-18T08:21:14;-5.80;99.90
36002;DHT22;22070;50.922;5.430;2022-12-18T08:23:41;-5.70;99.90
36002;DHT22;22070;50.922;5.430;2022-12-18T08:26:07;-5.70;99.90
36002;DHT22;22070;50.922;5.430;2022-12-18T08:28:33;-5.70;99.90
36002;DHT22;22070;50.922;5.430;2022-12-18T08:30:59;-5.30;99.90
36002;DHT22;22070;50.922;5.430;2022-12-18T08:33:24;-4.20;99.90
36002;DHT22;22070;50.922;5.430;2022-12-18T08:35:51;-5.40;99.90
36002;DHT22;22070;50.922;5.430;2022-12-18T08:38:17;-4.80;99.90
36002;DHT22;22070;50.922;5.430;2022-12-18T08:40:43;-5.20;99.90
36002;DHT22;22070;50.922;5.430;2022-12-18T08:43:10;-5.10;99.90
36002;DHT22;22070;50.922;5.430;2022-12-18T08:45:55;-3.90;99.90
36002;DHT22;22070;50.922;5.430;2022-12-18T08:48:21;-3.80;99.90
36002;DHT22;22070;50.922;5.430;2022-12-18T08:50:57;-5.80;99.90
36002;DHT22;22070;50.922;5.430;2022-12-18T08:53:24;-3.10;99.90
36002;DHT22;22070;50.922;5.430;2022-12-18T08:55:49;-3.30;99.90
36002;DHT22;22070;50.922;5.430;2022-12-18T08:58:15;-4.30;99.90
36002;DHT22;22070;50.922;5.430;2022-12-18T09:00:41;-4.50;99.90
36002;DHT22;22070;50.922;5.430;2022-12-18T09:03:15;-4.40;99.90
36002;DHT22;22070;50.922;5.430;2022-12-18T09:05:41;-4.30;99.90
36002;DHT22;22070;50.922;5.430;2022-12-18T09:08:06;-3.20;99.90
36002;DHT22;22070;50.922;5.430;2022-12-18T09:10:32;-3.90;99.90
36002;DHT22;22070;50.922;5.430;2022-12-18T09:12:58;-4.00;99.90
36002;DHT22;22070;50.922;5.430;2022-12-18T09:15:24;-2.50;99.90
36002;DHT22;22070;50.922;5.430;2022-12-18T09:17:49;-3.80;99.90
36002;DHT22;22070;50.922;5.430;2022-12-18T09:20:16;-3.80;99.90
36002;DHT22;22070;50.922;5.430;2022-12-18T09:22:42;-3.80;99.90
36002;DHT22;22070;50.922;5.430;2022-12-18T09:25:08;-3.70;99.90
36002;DHT22;22070;50.922;5.430;2022-12-18T09:27:34;-3.40;99.90
36002;DHT22;22070;50.922;5.430;2022-12-18T09:30:00;-3.60;99.90
36002;DHT22;22070;50.922;5.430;2022-12-18T09:32:26;-3.40;99.90
36002;DHT22;22070;50.922;5.430;2022-12-18T09:34:51;-3.60;99.90
36002;DHT22;22070;50.922;5.430;2022-12-18T09:37:17;-2.50;99.90
36002;DHT22;22070;50.922;5.430;2022-12-18T09:39:42;-2.40;99.90
36002;DHT22;22070;50.922;5.430;2022-12-18T09:42:22;-3.30;99.90
36002;DHT22;22070;50.922;5.430;2022-12-18T09:44:53;-3.20;99.90
36002;DHT22;22070;50.922;5.430;2022-12-18T09:50:03;-2.90;99.90
36002;DHT22;22070;50.922;5.430;2022-12-18T09:52:48;-2.10;99.90
36002;DHT22;22070;50.922;5.430;2022-12-18T09:55:34;-1.80;99.90
36002;DHT22;22070;50.922;5.430;2022-12-18T09:58:13;-2.80;99.90
36002;DHT22;22070;50.922;5.430;2022-12-18T10:00:40;-2.70;99.90
36002;DHT22;22070;50.922;5.430;2022-12-18T10:03:14;-2.50;99.90
36002;DHT22;22070;50.922;5.430;2022-12-18T10:11:01;-2.10;99.90
36002;DHT22;22070;50.922;5.430;2022-12-18T10:13:48;-2.20;99.90
36002;DHT22;22070;50.922;5.430;2022-12-18T10:16:50;-2.10;99.90
36002;DHT22;22070;50.922;5.430;2022-12-18T10:22:35;-1.90;99.90
36002;DHT22;22070;50.922;5.430;2022-12-18T10:25:13;-1.70;99.90
36002;DHT22;22070;50.922;5.430;2022-12-18T10:27:41;-1.70;99.90
36002;DHT22;22070;50.922;5.430;2022-12-18T10:30:18;-1.60;99.90
36002;DHT22;22070;50.922;5.430;2022-12-18T10:32:44;-1.60;99.90
36002;DHT22;22070;50.922;5.430;2022-12-18T10:35:30;-1.50;99.90
36002;DHT22;22070;50.922;5.430;2022-12-18T10:41:05;-1.30;99.90
36002;DHT22;22070;50.922;5.430;2022-12-18T10:43:34;-1.20;99.90
36002;DHT22;22070;50.922;5.430;2022-12-18T10:51:39;-1.10;99.90
36002;DHT22;22070;50.922;5.430;2022-12-18T10:54:16;-1.00;99.90
36002;DHT22;22070;50.922;5.430;2022-12-18T10:56:44;-0.90;99.90
36002;DHT22;22070;50.922;5.430;2022-12-18T10:59:11;-0.90;99.90
36002;DHT22;22070;50.922;5.430;2022-12-18T11:01:53;-0.80;99.90
36002;DHT22;22070;50.922;5.430;2022-12-18T11:04:30;-0.80;99.90
36002;DHT22;22070;50.922;5.430;2022-12-18T11:07:07;-0.70;99.90
36002;DHT22;22070;50.922;5.430;2022-12-18T11:09:39;-0.80;99.90
36002;DHT22;22070;50.922;5.430;2022-12-18T11:12:25;-0.60;99.90
36002;DHT22;22070;50.922;5.430;2022-12-18T11:14:58;-0.60;99.90
36002;DHT22;22070;50.922;5.430;2022-12-18T11:17:29;-0.70;99.90
36002;DHT22;22070;50.922;5.430;2022-12-18T11:19:58;1.00;99.90
36002;DHT22;22070;50.922;5.430;2022-12-18T11:22:30;-0.60;99.90
36002;DHT22;22070;50.922;5.430;2022-12-18T11:25:07;-0.50;99.90
36002;DHT22;22070;50.922;5.430;2022-12-18T11:27:48;-0.50;99.90
36002;DHT22;22070;50.922;5.430;2022-12-18T11:30:21;-0.30;99.90
36002;DHT22;22070;50.922;5.430;2022-12-18T11:35:53;-0.20;99.90
36002;DHT22;22070;50.922;5.430;2022-12-18T11:38:32;-0.20;99.90
36002;DHT22;22070;50.922;5.430;2022-12-18T11:41:18;-0.20;99.90
36002;DHT22;22070;50.922;5.430;2022-12-18T11:43:56;0.00;99.90
36002;DHT22;22070;50.922;5.430;2022-12-18T11:46:37;0.00;99.90
36002;DHT22;22070;50.922;5.430;2022-12-18T11:49:11;0.10;99.90
36002;DHT22;22070;50.922;5.430;2022-12-18T11:54:17;0.10;99.90
36002;DHT22;22070;50.922;5.430;2022-12-18T11:57:11;0.10;99.90
36002;DHT22;22070;50.922;5.430;2022-12-18T12:00:02;0.20;99.90
36002;DHT22;22070;50.922;5.430;2022-12-18T12:08:01;0.50;99.90
36002;DHT22;22070;50.922;5.430;2022-12-18T12:17:12;0.70;99.90
36002;DHT22;22070;50.922;5.430;2022-12-18T12:19:28;0.70;99.90
36002;DHT22;22070;50.922;5.430;2022-12-18T12:22:25;0.70;99.90
36002;DHT22;22070;50.922;5.430;2022-12-18T12:25:14;0.70;99.90
36002;DHT22;22070;50.922;5.430;2022-12-18T12:36:14;1.10;99.90
36002;DHT22;22070;50.922;5.430;2022-12-18T12:38:45;1.10;99.90
36002;DHT22;22070;50.922;5.430;2022-12-18T12:41:18;1.00;99.90
36002;DHT22;22070;50.922;5.430;2022-12-18T12:44:08;1.10;99.90
36002;DHT22;22070;50.922;5.430;2022-12-18T12:46:38;0.90;99.90
36002;DHT22;22070;50.922;5.430;2022-12-18T12:49:14;0.90;99.90
36002;DHT22;22070;50.922;5.430;2022-12-18T12:51:46;1.00;99.90
36002;DHT22;22070;50.922;5.430;2022-12-18T12:54:22;0.80;99.90
36002;DHT22;22070;50.922;5.430;2022-12-18T13:08:11;1.00;99.90
36002;DHT22;22070;50.922;5.430;2022-12-18T13:10:41;1.00;99.90
36002;DHT22;22070;50.922;5.430;2022-12-18T13:13:08;1.00;99.90
36002;DHT22;22070;50.922;5.430;2022-12-18T13:15:41;1.00;99.90
36002;DHT22;22070;50.922;5.430;2022-12-18T13:20:36;1.10;99.90
36002;DHT22;22070;50.922;5.430;2022-12-18T13:25:58;1.30;99.90
36002;DHT22;22070;50.922;5.430;2022-12-18T13:33:43;1.40;99.90
36002;DHT22;22070;50.922;5.430;2022-12-18T13:36:13;1.40;99.90
36002;DHT22;22070;50.922;5.430;2022-12-18T13:38:39;1.50;99.90
36002;DHT22;22070;50.922;5.430;2022-12-18T13:43:50;1.50;99.90
36002;DHT22;22070;50.922;5.430;2022-12-18T13:46:27;1.50;99.90
36002;DHT22;22070;50.922;5.430;2022-12-18T13:51:41;1.40;99.90
36002;DHT22;22070;50.922;5.430;2022-12-18T13:56:46;1.50;99.90
36002;DHT22;22070;50.922;5.430;2022-12-18T13:59:16;1.40;99.90
36002;DHT22;22070;50.922;5.430;2022-12-18T14:01:54;1.50;99.90
36002;DHT22;22070;50.922;5.430;2022-12-18T14:04:34;1.50;99.90
36002;DHT22;22070;50.922;5.430;2022-12-18T14:07:10;1.50;99.90
36002;DHT22;22070;50.922;5.430;2022-12-18T14:09:43;1.60;99.90
36002;DHT22;22070;50.922;5.430;2022-12-18T14:12:22;1.50;99.90
36002;DHT22;22070;50.922;5.430;2022-12-18T14:17:57;1.50;99.90
36002;DHT22;22070;50.922;5.430;2022-12-18T14:20:34;1.40;99.90
36002;DHT22;22070;50.922;5.430;2022-12-18T14:23:00;1.30;99.90
36002;DHT22;22070;50.922;5.430;2022-12-18T14:25:30;1.40;99.90
36002;DHT22;22070;50.922;5.430;2022-12-18T14:30:43;1.40;99.90
36002;DHT22;22070;50.922;5.430;2022-12-18T14:35:37;1.50;99.90
36002;DHT22;22070;50.922;5.430;2022-12-18T14:38:33;1.50;99.90
36002;DHT22;22070;50.922;5.430;2022-12-18T14:40:58;1.50;99.90
36002;DHT22;22070;50.922;5.430;2022-12-18T14:43:26;1.40;99.90
36002;DHT22;22070;50.922;5.430;2022-12-18T14:45:52;1.40;99.90
36002;DHT22;22070;50.922;5.430;2022-12-18T14:51:00;1.40;99.90
36002;DHT22;22070;50.922;5.430;2022-12-18T14:55:58;1.40;99.90
36002;DHT22;22070;50.922;5.430;2022-12-18T14:58:23;1.50;99.90
36002;DHT22;22070;50.922;5.430;2022-12-18T15:00:49;1.40;99.90
36002;DHT22;22070;50.922;5.430;2022-12-18T15:03:20;1.40;99.90
36002;DHT22;22070;50.922;5.430;2022-12-18T15:05:46;1.60;99.90
36002;DHT22;22070;50.922;5.430;2022-12-18T15:08:30;1.30;99.90
36002;DHT22;22070;50.922;5.430;2022-12-18T15:10:56;1.30;99.90
36002;DHT22;22070;50.922;5.430;2022-12-18T15:13:23;1.30;99.90
36002;DHT22;22070;50.922;5.430;2022-12-18T15:15:50;1.20;99.90
36002;DHT22;22070;50.922;5.430;2022-12-18T15:18:18;1.20;99.90
36002;DHT22;22070;50.922;5.430;2022-12-18T15:21:15;1.10;99.90
36002;DHT22;22070;50.922;5.430;2022-12-18T15:23:46;1.10;99.90
36002;DHT22;22070;50.922;5.430;2022-12-18T15:26:14;1.10;99.90
36002;DHT22;22070;50.922;5.430;2022-12-18T15:28:52;1.10;99.90
36002;DHT22;22070;50.922;5.430;2022-12-18T15:31:32;1.00;99.90
36002;DHT22;22070;50.922;5.430;2022-12-18T15:34:20;1.00;99.90
36002;DHT22;22070;50.922;5.430;2022-12-18T15:36:46;1.00;99.90
36002;DHT22;22070;50.922;5.430;2022-12-18T15:39:12;0.90;99.90
36002;DHT22;22070;50.922;5.430;2022-12-18T15:41:38;0.90;99.90
36002;DHT22;22070;50.922;5.430;2022-12-18T15:44:22;0.90;99.90
36002;DHT22;22070;50.922;5.430;2022-12-18T15:46:48;0.90;99.90
36002;DHT22;22070;50.922;5.430;2022-12-18T15:49:13;0.80;99.90
36002;DHT22;22070;50.922;5.430;2022-12-18T15:51:39;0.80;99.90
36002;DHT22;22070;50.922;5.430;2022-12-18T15:54:09;0.90;99.90
36002;DHT22;22070;50.922;5.430;2022-12-18T15:56:36;0.80;99.90
36002;DHT22;22070;50.922;5.430;2022-12-18T15:59:21;0.90;99.90
36002;DHT22;22070;50.922;5.430;2022-12-18T16:01:49;0.90;99.90
36002;DHT22;22070;50.922;5.430;2022-12-18T16:04:17;0.80;99.90
36002;DHT22;22070;50.922;5.430;2022-12-18T16:06:45;0.80;99.90
36002;DHT22;22070;50.922;5.430;2022-12-18T16:09:10;0.80;99.90
36002;DHT22;22070;50.922;5.430;2022-12-18T16:11:37;0.80;99.90
36002;DHT22;22070;50.922;5.430;2022-12-18T16:14:07;0.80;99.90
36002;DHT22;22070;50.922;5.430;2022-12-18T16:16:36;1.20;99.90
36002;DHT22;22070;50.922;5.430;2022-12-18T16:19:01;0.80;99.90
36002;DHT22;22070;50.922;5.430;2022-12-18T16:21:27;0.90;99.90
36002;DHT22;22070;50.922;5.430;2022-12-18T16:23:53;0.80;99.90
36002;DHT22;22070;50.922;5.430;2022-12-18T16:26:18;1.10;99.90
36002;DHT22;22070;50.922;5.430;2022-12-18T16:28:44;0.80;99.90
36002;DHT22;22070;50.922;5.430;2022-12-18T16:31:10;0.80;99.90
36002;DHT22;22070;50.922;5.430;2022-12-18T16:33:35;0.80;99.90
36002;DHT22;22070;50.922;5.430;2022-12-18T16:36:01;0.80;99.90
36002;DHT22;22070;50.922;5.430;2022-12-18T16:38:27;0.80;99.90
36002;DHT22;22070;50.922;5.430;2022-12-18T16:40:52;0.90;99.90
36002;DHT22;22070;50.922;5.430;2022-12-18T16:43:36;0.80;99.90
36002;DHT22;22070;50.922;5.430;2022-12-18T16:46:02;0.80;99.90
36002;DHT22;22070;50.922;5.430;2022-12-18T16:48:28;0.80;99.90
36002;DHT22;22070;50.922;5.430;2022-12-18T16:51:02;1.30;99.90
36002;DHT22;22070;50.922;5.430;2022-12-18T16:53:28;0.80;99.90
36002;DHT22;22070;50.922;5.430;2022-12-18T16:55:55;0.80;99.90
36002;DHT22;22070;50.922;5.430;2022-12-18T16:58:21;0.80;99.90
36002;DHT22;22070;50.922;5.430;2022-12-18T17:00:47;0.80;99.90
36002;DHT22;22070;50.922;5.430;2022-12-18T17:03:12;0.90;99.90
36002;DHT22;22070;50.922;5.430;2022-12-18T17:05:38;0.80;99.90
36002;DHT22;22070;50.922;5.430;2022-12-18T17:08:04;1.00;99.90
36002;DHT22;22070;50.922;5.430;2022-12-18T17:10:30;0.80;99.90
36002;DHT22;22070;50.922;5.430;2022-12-18T17:12:56;0.80;99.90
36002;DHT22;22070;50.922;5.430;2022-12-18T17:15:21;0.60;99.90
36002;DHT22;22070;50.922;5.430;2022-12-18T17:17:47;0.90;99.90
36002;DHT22;22070;50.922;5.430;2022-12-18T17:20:13;0.90;99.90
36002;DHT22;22070;50.922;5.430;2022-12-18T17:22:38;0.90;99.90
36002;DHT22;22070;50.922;5.430;2022-12-18T17:25:04;1.00;99.90
36002;DHT22;22070;50.922;5.430;2022-12-18T17:27:30;1.00;99.90
36002;DHT22;22070;50.922;5.430;2022-12-18T17:29:56;1.00;99.90
36002;DHT22;22070;50.922;5.430;2022-12-18T17:32:21;1.10;99.90
36002;DHT22;22070;50.922;5.430;2022-12-18T17:34:47;1.00;99.90
36002;DHT22;22070;50.922;5.430;2022-12-18T17:37:13;1.10;99.90
36002;DHT22;22070;50.922;5.430;2022-12-18T17:39:39;1.10;99.90
36002;DHT22;22070;50.922;5.430;2022-12-18T17:42:06;1.10;99.90
36002;DHT22;22070;50.922;5.430;2022-12-18T17:44:34;1.20;99.90
36002;DHT22;22070;50.922;5.430;2022-12-18T17:47:00;1.20;99.90
36002;DHT22;22070;50.922;5.430;2022-12-18T17:49:26;1.20;99.90
36002;DHT22;22070;50.922;5.430;2022-12-18T17:51:51;1.20;99.90
36002;DHT22;22070;50.922;5.430;2022-12-18T17:54:18;1.30;99.90